sensor_id;sensor_type;location;lat;lon;timestamp;P1;durP1;ratioP1;P2;durP2;ratioP2
1935;SDS011;969;49.892;10.896;2024-01-15T00:02:17;1.07;;;0.80;;
1935;SDS011;969;49.892;10.896;2024-01-15T00:04:42;1.03;;;0.80;;
1935;SDS011;969;49.892;10.896;2024-01-15T00:07:08;1.90;;;1.00;;
1935;SDS011;969;49.892;10.896;2024-01-15T00:09:34;1.10;;;0.80;;
1935;SDS011;969;49.892;10.896;2024-01-15T00:12:00;1.60;;;1.10;;
1935;SDS011;969;49.892;10.896;2024-01-15T00:14:26;1.23;;;0.83;;
1935;SDS011;969;49.892;10.896;2024-01-15T00:16:52;1.00;;;0.80;;
1935;SDS011;969;49.892;10.896;2024-01-15T00:19:20;0.90;;;0.70;;
1935;SDS011;969;49.892;10.896;2024-01-15T00:21:46;1.30;;;0.90;;
1935;SDS011;969;49.892;10.896;2024-01-15T00:24:12;1.63;;;1.00;;
1935;SDS011;969;49.892;10.896;2024-01-15T00:26:38;1.73;;;1.10;;
1935;SDS011;969;49.892;10.896;2024-01-15T00:29:04;1.00;;;0.80;;
1935;SDS011;969;49.892;10.896;2024-01-15T00:31:31;1.20;;;1.10;;
1935;SDS011;969;49.892;10.896;2024-01-15T00:33:57;1.00;;;0.80;;
1935;SDS011;969;49.892;10.896;2024-01-15T00:36:22;1.50;;;1.20;;
1935;SDS011;969;49.892;10.896;2024-01-15T00:38:48;1.17;;;0.80;;
1935;SDS011;969;49.892;10.896;2024-01-15T00:41:14;1.10;;;0.80;;
1935;SDS011;969;49.892;10.896;2024-01-15T00:43:40;1.07;;;0.90;;
1935;SDS011;969;49.892;10.896;2024-01-15T00:46:05;1.10;;;0.80;;
1935;SDS011;969;49.892;10.896;2024-01-15T00:48:31;1.17;;;1.03;;
1935;SDS011;969;49.892;10.896;2024-01-15T00:50:57;1.03;;;0.87;;
1935;SDS011;969;49.892;10.896;2024-01-15T00:53:23;1.07;;;0.83;;
1935;SDS011;969;49.892;10.896;2024-01-15T00:55:49;1.30;;;1.00;;
1935;SDS011;969;49.892;10.896;2024-01-15T00:58:15;1.27;;;1.00;;
1935;SDS011;969;49.892;10.896;2024-01-15T01:00:41;1.00;;;0.90;;
1935;SDS011;969;49.892;10.896;2024-01-15T01:03:06;1.10;;;0.83;;
1935;SDS011;969;49.892;10.896;2024-01-15T01:05:33;1.00;;;0.90;;
1935;SDS011;969;49.892;10.896;2024-01-15T01:07:59;1.10;;;0.80;;
1935;SDS011;969;49.892;10.896;2024-01-15T01:10:24;1.30;;;1.17;;
1935;SDS011;969;49.892;10.896;2024-01-15T01:12:50;1.70;;;1.10;;
1935;SDS011;969;49.892;10.896;2024-01-15T01:15:16;1.23;;;0.80;;
1935;SDS011;969;49.892;10.896;2024-01-15T01:17:41;1.53;;;1.10;;
1935;SDS011;969;49.892;10.896;2024-01-15T01:20:07;1.20;;;1.00;;
1935;SDS011;969;49.892;10.896;2024-01-15T01:22:34;1.20;;;0.80;;
1935;SDS011;969;49.892;10.896;2024-01-15T01:25:00;1.03;;;0.77;;
1935;SDS011;969;49.892;10.896;2024-01-15T01:27:25;1.20;;;1.10;;
1935;SDS011;969;49.892;10.896;2024-01-15T01:29:51;1.30;;;1.07;;
1935;SDS011;969;49.892;10.896;2024-01-15T01:32:17;1.30;;;0.97;;
1935;SDS011;969;49.892;10.896;2024-01-15T01:34:42;1.07;;;0.83;;
1935;SDS011;969;49.892;10.896;2024-01-15T01:37:09;1.70;;;1.07;;
1935;SDS011;969;49.892;10.896;2024-01-15T01:39:35;1.50;;;1.10;;
1935;SDS011;969;49.892;10.896;2024-01-15T01:42:01;1.13;;;0.80;;
1935;SDS011;969;49.892;10.896;2024-01-15T01:44:26;0.93;;;0.70;;
1935;SDS011;969;49.892;10.896;2024-01-15T01:46:52;1.00;;;0.70;;
1935;SDS011;969;49.892;10.896;2024-01-15T01:49:18;1.27;;;1.00;;
1935;SDS011;969;49.892;10.896;2024-01-15T01:51:44;1.10;;;0.90;;
1935;SDS011;969;49.892;10.896;2024-01-15T01:54:10;1.10;;;0.77;;
1935;SDS011;969;49.892;10.896;2024-01-15T01:56:38;1.33;;;0.80;;
1935;SDS011;969;49.892;10.896;2024-01-15T01:59:05;1.43;;;0.97;;
1935;SDS011;969;49.892;10.896;2024-01-15T02:01:32;1.10;;;0.80;;
1935;SDS011;969;49.892;10.896;2024-01-15T02:03:58;1.20;;;0.90;;
1935;SDS011;969;49.892;10.896;2024-01-15T02:06:25;1.20;;;0.87;;
1935;SDS011;969;49.892;10.896;2024-01-15T02:08:50;1.13;;;0.80;;
1935;SDS011;969;49.892;10.896;2024-01-15T02:11:16;1.00;;;0.80;;
1935;SDS011;969;49.892;10.896;2024-01-15T02:13:42;1.17;;;0.90;;
1935;SDS011;969;49.892;10.896;2024-01-15T02:16:07;1.10;;;0.80;;
1935;SDS011;969;49.892;10.896;2024-01-15T02:18:40;1.30;;;0.90;;
1935;SDS011;969;49.892;10.896;2024-01-15T02:21:09;1.40;;;0.90;;
1935;SDS011;969;49.892;10.896;2024-01-15T02:23:36;1.03;;;0.77;;
1935;SDS011;969;49.892;10.896;2024-01-15T02:26:02;1.20;;;0.90;;
1935;SDS011;969;49.892;10.896;2024-01-15T02:28:29;1.20;;;0.90;;
1935;SDS011;969;49.892;10.896;2024-01-15T02:30:54;1.00;;;0.80;;
1935;SDS011;969;49.892;10.896;2024-01-15T02:33:20;0.90;;;0.70;;
1935;SDS011;969;49.892;10.896;2024-01-15T02:35:46;1.63;;;0.70;;
1935;SDS011;969;49.892;10.896;2024-01-15T02:38:11;1.17;;;0.80;;
1935;SDS011;969;49.892;10.896;2024-01-15T02:40:37;1.17;;;0.87;;
1935;SDS011;969;49.892;10.896;2024-01-15T02:43:03;1.20;;;1.00;;
1935;SDS011;969;49.892;10.896;2024-01-15T02:45:29;1.30;;;0.93;;
1935;SDS011;969;49.892;10.896;2024-01-15T02:47:55;1.57;;;0.90;;
1935;SDS011;969;49.892;10.896;2024-01-15T02:50:20;1.10;;;0.87;;
1935;SDS011;969;49.892;10.896;2024-01-15T02:52:46;1.20;;;1.00;;
1935;SDS011;969;49.892;10.896;2024-01-15T02:55:12;1.00;;;0.80;;
1935;SDS011;969;49.892;10.896;2024-01-15T02:57:37;1.20;;;1.00;;
1935;SDS011;969;49.892;10.896;2024-01-15T03:00:03;1.20;;;0.90;;
1935;SDS011;969;49.892;10.896;2024-01-15T03:02:29;1.20;;;0.90;;
1935;SDS011;969;49.892;10.896;2024-01-15T03:04:56;0.80;;;0.70;;
1935;SDS011;969;49.892;10.896;2024-01-15T03:07:22;1.30;;;0.90;;
1935;SDS011;969;49.892;10.896;2024-01-15T03:09:48;1.07;;;0.87;;
1935;SDS011;969;49.892;10.896;2024-01-15T03:12:13;1.00;;;0.77;;
1935;SDS011;969;49.892;10.896;2024-01-15T03:14:39;1.20;;;0.90;;
1935;SDS011;969;49.892;10.896;2024-01-15T03:17:04;1.10;;;0.90;;
1935;SDS011;969;49.892;10.896;2024-01-15T03:19:30;1.13;;;0.90;;
1935;SDS011;969;49.892;10.896;2024-01-15T03:21:59;1.10;;;0.80;;
1935;SDS011;969;49.892;10.896;2024-01-15T03:24:26;1.20;;;0.90;;
1935;SDS011;969;49.892;10.896;2024-01-15T03:26:51;1.10;;;0.70;;
1935;SDS011;969;49.892;10.896;2024-01-15T03:29:17;1.10;;;0.90;;
1935;SDS011;969;49.892;10.896;2024-01-15T03:31:42;1.37;;;1.00;;
1935;SDS011;969;49.892;10.896;2024-01-15T03:34:08;1.20;;;0.90;;
1935;SDS011;969;49.892;10.896;2024-01-15T03:36:33;1.00;;;0.80;;
1935;SDS011;969;49.892;10.896;2024-01-15T03:38:59;1.07;;;0.80;;
1935;SDS011;969;49.892;10.896;2024-01-15T03:41:25;1.10;;;0.90;;
1935;SDS011;969;49.892;10.896;2024-01-15T03:43:50;1.20;;;1.03;;
1935;SDS011;969;49.892;10.896;2024-01-15T03:46:16;1.00;;;0.90;;
1935;SDS011;969;49.892;10.896;2024-01-15T03:48:41;1.70;;;1.17;;
1935;SDS011;969;49.892;10.896;2024-01-15T03:51:07;1.17;;;0.90;;
1935;SDS011;969;49.892;10.896;2024-01-15T03:53:32;1.10;;;0.93;;
1935;SDS011;969;49.892;10.896;2024-01-15T03:55:58;1.40;;;1.03;;
1935;SDS011;969;49.892;10.896;2024-01-15T03:58:24;1.80;;;1.10;;
1935;SDS011;969;49.892;10.896;2024-01-15T04:00:49;1.47;;;0.93;;
1935;SDS011;969;49.892;10.896;2024-01-15T04:03:15;1.20;;;0.90;;
1935;SDS011;969;49.892;10.896;2024-01-15T04:05:40;0.97;;;0.77;;
1935;SDS011;969;49.892;10.896;2024-01-15T04:08:06;1.30;;;0.90;;
1935;SDS011;969;49.892;10.896;2024-01-15T04:10:31;1.20;;;0.90;;
1935;SDS011;969;49.892;10.896;2024-01-15T04:12:57;1.13;;;0.90;;
1935;SDS011;969;49.892;10.896;2024-01-15T04:15:24;1.40;;;1.10;;
1935;SDS011;969;49.892;10.896;2024-01-15T04:17:51;1.20;;;0.83;;
1935;SDS011;969;49.892;10.896;2024-01-15T04:20:17;0.97;;;0.70;;
1935;SDS011;969;49.892;10.896;2024-01-15T04:22:43;1.17;;;1.00;;
1935;SDS011;969;49.892;10.896;2024-01-15T04:25:09;1.10;;;0.73;;
1935;SDS011;969;49.892;10.896;2024-01-15T04:27:35;1.07;;;0.87;;
1935;SDS011;969;49.892;10.896;2024-01-15T04:30:00;1.23;;;0.93;;
1935;SDS011;969;49.892;10.896;2024-01-15T04:32:26;1.10;;;0.77;;
1935;SDS011;969;49.892;10.896;2024-01-15T04:34:51;0.90;;;0.70;;
1935;SDS011;969;49.892;10.896;2024-01-15T04:37:17;1.40;;;1.10;;
1935;SDS011;969;49.892;10.896;2024-01-15T04:39:42;1.00;;;0.83;;
1935;SDS011;969;49.892;10.896;2024-01-15T04:42:08;1.00;;;0.70;;
1935;SDS011;969;49.892;10.896;2024-01-15T04:44:34;1.20;;;0.87;;
1935;SDS011;969;49.892;10.896;2024-01-15T04:46:59;1.07;;;0.90;;
1935;SDS011;969;49.892;10.896;2024-01-15T04:49:25;1.30;;;0.83;;
1935;SDS011;969;49.892;10.896;2024-01-15T04:51:54;1.33;;;0.90;;
1935;SDS011;969;49.892;10.896;2024-01-15T04:54:20;1.10;;;0.77;;
1935;SDS011;969;49.892;10.896;2024-01-15T04:56:46;1.30;;;0.97;;
1935;SDS011;969;49.892;10.896;2024-01-15T04:59:11;1.53;;;0.97;;
1935;SDS011;969;49.892;10.896;2024-01-15T05:01:39;1.43;;;1.13;;
1935;SDS011;969;49.892;10.896;2024-01-15T05:04:05;1.13;;;0.80;;
1935;SDS011;969;49.892;10.896;2024-01-15T05:06:30;1.40;;;0.90;;
1935;SDS011;969;49.892;10.896;2024-01-15T05:08:56;1.00;;;0.77;;
1935;SDS011;969;49.892;10.896;2024-01-15T05:11:22;1.00;;;0.70;;
1935;SDS011;969;49.892;10.896;2024-01-15T05:13:48;1.33;;;0.80;;
1935;SDS011;969;49.892;10.896;2024-01-15T05:16:14;1.20;;;0.80;;
1935;SDS011;969;49.892;10.896;2024-01-15T05:18:39;1.20;;;0.90;;
1935;SDS011;969;49.892;10.896;2024-01-15T05:21:05;1.20;;;0.87;;
1935;SDS011;969;49.892;10.896;2024-01-15T05:23:31;1.10;;;0.93;;
1935;SDS011;969;49.892;10.896;2024-01-15T05:25:56;1.20;;;0.90;;
1935;SDS011;969;49.892;10.896;2024-01-15T05:28:22;0.90;;;0.70;;
1935;SDS011;969;49.892;10.896;2024-01-15T05:30:48;1.50;;;1.00;;
1935;SDS011;969;49.892;10.896;2024-01-15T05:33:15;1.40;;;0.80;;
1935;SDS011;969;49.892;10.896;2024-01-15T05:35:41;1.00;;;0.70;;
1935;SDS011;969;49.892;10.896;2024-01-15T05:38:07;1.63;;;0.93;;
1935;SDS011;969;49.892;10.896;2024-01-15T05:40:32;1.10;;;0.87;;
1935;SDS011;969;49.892;10.896;2024-01-15T05:42:58;1.80;;;1.20;;
1935;SDS011;969;49.892;10.896;2024-01-15T05:45:23;2.90;;;2.50;;
1935;SDS011;969;49.892;10.896;2024-01-15T05:47:51;1.40;;;1.23;;
1935;SDS011;969;49.892;10.896;2024-01-15T05:50:16;1.53;;;1.30;;
1935;SDS011;969;49.892;10.896;2024-01-15T05:52:42;1.47;;;1.10;;
1935;SDS011;969;49.892;10.896;2024-01-15T05:55:07;1.37;;;1.10;;
1935;SDS011;969;49.892;10.896;2024-01-15T05:57:34;1.80;;;1.00;;
1935;SDS011;969;49.892;10.896;2024-01-15T06:00:00;1.73;;;1.13;;
1935;SDS011;969;49.892;10.896;2024-01-15T06:02:26;1.30;;;1.13;;
1935;SDS011;969;49.892;10.896;2024-01-15T06:04:52;1.20;;;0.97;;
1935;SDS011;969;49.892;10.896;2024-01-15T06:07:17;1.30;;;1.00;;
1935;SDS011;969;49.892;10.896;2024-01-15T06:09:43;1.43;;;0.90;;
1935;SDS011;969;49.892;10.896;2024-01-15T06:12:08;1.10;;;0.83;;
1935;SDS011;969;49.892;10.896;2024-01-15T06:14:34;1.40;;;1.10;;
1935;SDS011;969;49.892;10.896;2024-01-15T06:16:59;1.37;;;1.10;;
1935;SDS011;969;49.892;10.896;2024-01-15T06:19:25;1.20;;;0.83;;
1935;SDS011;969;49.892;10.896;2024-01-15T06:21:51;1.00;;;0.80;;
1935;SDS011;969;49.892;10.896;2024-01-15T06:24:16;1.00;;;0.87;;
1935;SDS011;969;49.892;10.896;2024-01-15T06:26:46;0.90;;;0.70;;
1935;SDS011;969;49.892;10.896;2024-01-15T06:29:11;1.30;;;0.90;;
1935;SDS011;969;49.892;10.896;2024-01-15T06:31:37;1.40;;;1.00;;
1935;SDS011;969;49.892;10.896;2024-01-15T06:34:03;1.43;;;0.90;;
1935;SDS011;969;49.892;10.896;2024-01-15T06:36:28;1.20;;;0.90;;
1935;SDS011;969;49.892;10.896;2024-01-15T06:38:54;1.00;;;0.77;;
1935;SDS011;969;49.892;10.896;2024-01-15T06:41:19;1.57;;;0.80;;
1935;SDS011;969;49.892;10.896;2024-01-15T06:43:45;1.03;;;0.80;;
1935;SDS011;969;49.892;10.896;2024-01-15T06:46:10;1.20;;;0.80;;
1935;SDS011;969;49.892;10.896;2024-01-15T06:48:36;1.17;;;0.90;;
1935;SDS011;969;49.892;10.896;2024-01-15T06:51:02;1.03;;;0.80;;
1935;SDS011;969;49.892;10.896;2024-01-15T06:53:27;4.10;;;0.90;;
1935;SDS011;969;49.892;10.896;2024-01-15T06:55:53;1.20;;;1.00;;
1935;SDS011;969;49.892;10.896;2024-01-15T06:58:19;1.50;;;1.30;;
1935;SDS011;969;49.892;10.896;2024-01-15T07:00:44;1.50;;;1.20;;
1935;SDS011;969;49.892;10.896;2024-01-15T07:03:10;1.53;;;1.20;;
1935;SDS011;969;49.892;10.896;2024-01-15T07:05:35;1.43;;;1.33;;
1935;SDS011;969;49.892;10.896;2024-01-15T07:08:02;1.77;;;1.27;;
1935;SDS011;969;49.892;10.896;2024-01-15T07:10:28;1.60;;;1.30;;
1935;SDS011;969;49.892;10.896;2024-01-15T07:12:53;2.30;;;1.37;;
1935;SDS011;969;49.892;10.896;2024-01-15T07:15:19;3.87;;;1.70;;
1935;SDS011;969;49.892;10.896;2024-01-15T07:17:45;1.97;;;1.40;;
1935;SDS011;969;49.892;10.896;2024-01-15T07:20:10;2.00;;;1.63;;
1935;SDS011;969;49.892;10.896;2024-01-15T07:22:36;1.57;;;1.17;;
1935;SDS011;969;49.892;10.896;2024-01-15T07:25:02;2.20;;;1.70;;
1935;SDS011;969;49.892;10.896;2024-01-15T07:27:29;3.00;;;1.37;;
1935;SDS011;969;49.892;10.896;2024-01-15T07:29:56;1.83;;;1.50;;
1935;SDS011;969;49.892;10.896;2024-01-15T07:32:22;2.00;;;1.70;;
1935;SDS011;969;49.892;10.896;2024-01-15T07:34:47;1.67;;;1.40;;
1935;SDS011;969;49.892;10.896;2024-01-15T07:37:13;1.73;;;1.37;;
1935;SDS011;969;49.892;10.896;2024-01-15T07:39:39;2.90;;;2.07;;
1935;SDS011;969;49.892;10.896;2024-01-15T07:42:04;3.53;;;1.90;;
1935;SDS011;969;49.892;10.896;2024-01-15T07:44:30;1.70;;;1.30;;
1935;SDS011;969;49.892;10.896;2024-01-15T07:46:56;2.80;;;1.73;;
1935;SDS011;969;49.892;10.896;2024-01-15T07:49:21;2.63;;;1.67;;
1935;SDS011;969;49.892;10.896;2024-01-15T07:51:48;2.53;;;1.50;;
1935;SDS011;969;49.892;10.896;2024-01-15T07:54:14;2.00;;;1.80;;
1935;SDS011;969;49.892;10.896;2024-01-15T07:59:21;2.90;;;1.60;;
1935;SDS011;969;49.892;10.896;2024-01-15T08:01:47;2.13;;;1.43;;
1935;SDS011;969;49.892;10.896;2024-01-15T08:04:12;2.20;;;1.53;;
1935;SDS011;969;49.892;10.896;2024-01-15T08:06:38;2.13;;;1.60;;
1935;SDS011;969;49.892;10.896;2024-01-15T08:09:04;1.70;;;1.30;;
1935;SDS011;969;49.892;10.896;2024-01-15T08:11:30;1.63;;;1.30;;
1935;SDS011;969;49.892;10.896;2024-01-15T08:13:56;1.50;;;1.30;;
1935;SDS011;969;49.892;10.896;2024-01-15T08:16:21;1.97;;;1.50;;
1935;SDS011;969;49.892;10.896;2024-01-15T08:18:49;1.87;;;1.67;;
1935;SDS011;969;49.892;10.896;2024-01-15T08:21:14;3.80;;;1.90;;
1935;SDS011;969;49.892;10.896;2024-01-15T08:23:40;2.97;;;1.50;;
1935;SDS011;969;49.892;10.896;2024-01-15T08:26:09;2.53;;;1.60;;
1935;SDS011;969;49.892;10.896;2024-01-15T08:28:38;2.03;;;1.50;;
1935;SDS011;969;49.892;10.896;2024-01-15T08:31:03;2.77;;;1.60;;
1935;SDS011;969;49.892;10.896;2024-01-15T08:33:29;1.70;;;1.40;;
1935;SDS011;969;49.892;10.896;2024-01-15T08:35:54;1.80;;;1.50;;
1935;SDS011;969;49.892;10.896;2024-01-15T08:38:20;2.70;;;1.57;;
1935;SDS011;969;49.892;10.896;2024-01-15T08:40:46;2.23;;;1.60;;
1935;SDS011;969;49.892;10.896;2024-01-15T08:43:12;2.90;;;1.93;;
1935;SDS011;969;49.892;10.896;2024-01-15T08:45:38;2.53;;;1.70;;
1935;SDS011;969;49.892;10.896;2024-01-15T08:48:03;2.60;;;1.50;;
1935;SDS011;969;49.892;10.896;2024-01-15T08:50:29;1.97;;;1.47;;
1935;SDS011;969;49.892;10.896;2024-01-15T08:52:56;2.50;;;1.77;;
1935;SDS011;969;49.892;10.896;2024-01-15T08:55:22;3.17;;;1.90;;
1935;SDS011;969;49.892;10.896;2024-01-15T08:57:48;2.73;;;1.43;;
1935;SDS011;969;49.892;10.896;2024-01-15T09:00:14;1.87;;;1.70;;
1935;SDS011;969;49.892;10.896;2024-01-15T09:02:40;2.33;;;1.67;;
1935;SDS011;969;49.892;10.896;2024-01-15T09:05:06;2.80;;;1.50;;
1935;SDS011;969;49.892;10.896;2024-01-15T09:07:32;1.70;;;1.47;;
1935;SDS011;969;49.892;10.896;2024-01-15T09:09:58;2.63;;;1.73;;
1935;SDS011;969;49.892;10.896;2024-01-15T09:12:27;1.80;;;1.60;;
1935;SDS011;969;49.892;10.896;2024-01-15T09:14:53;2.50;;;1.77;;
1935;SDS011;969;49.892;10.896;2024-01-15T09:17:19;1.93;;;1.60;;
1935;SDS011;969;49.892;10.896;2024-01-15T09:19:45;2.37;;;1.60;;
1935;SDS011;969;49.892;10.896;2024-01-15T09:22:12;2.70;;;1.80;;
1935;SDS011;969;49.892;10.896;2024-01-15T09:24:40;1.93;;;1.60;;
1935;SDS011;969;49.892;10.896;2024-01-15T09:27:06;2.37;;;1.77;;
1935;SDS011;969;49.892;10.896;2024-01-15T09:29:32;2.43;;;1.47;;
1935;SDS011;969;49.892;10.896;2024-01-15T09:31:58;2.20;;;1.53;;
1935;SDS011;969;49.892;10.896;2024-01-15T09:34:23;2.37;;;1.50;;
1935;SDS011;969;49.892;10.896;2024-01-15T09:36:49;7.50;;;3.80;;
1935;SDS011;969;49.892;10.896;2024-01-15T09:39:15;2.07;;;1.70;;
1935;SDS011;969;49.892;10.896;2024-01-15T09:41:40;2.10;;;1.70;;
1935;SDS011;969;49.892;10.896;2024-01-15T09:44:07;2.30;;;1.70;;
1935;SDS011;969;49.892;10.896;2024-01-15T09:46:33;1.90;;;1.60;;
1935;SDS011;969;49.892;10.896;2024-01-15T09:49:00;2.93;;;1.90;;
1935;SDS011;969;49.892;10.896;2024-01-15T09:51:30;2.53;;;1.53;;
1935;SDS011;969;49.892;10.896;2024-01-15T09:53:57;2.53;;;1.40;;
1935;SDS011;969;49.892;10.896;2024-01-15T09:56:23;2.00;;;1.70;;
1935;SDS011;969;49.892;10.896;2024-01-15T09:58:49;1.80;;;1.30;;
1935;SDS011;969;49.892;10.896;2024-01-15T10:01:17;2.57;;;2.00;;
1935;SDS011;969;49.892;10.896;2024-01-15T10:03:47;2.90;;;2.10;;
1935;SDS011;969;49.892;10.896;2024-01-15T10:06:16;2.30;;;1.60;;
1935;SDS011;969;49.892;10.896;2024-01-15T10:08:42;3.20;;;1.53;;
1935;SDS011;969;49.892;10.896;2024-01-15T10:11:12;1.83;;;1.60;;
1935;SDS011;969;49.892;10.896;2024-01-15T10:13:39;2.63;;;1.50;;
1935;SDS011;969;49.892;10.896;2024-01-15T10:16:04;2.60;;;1.73;;
1935;SDS011;969;49.892;10.896;2024-01-15T10:18:30;2.13;;;1.53;;
1935;SDS011;969;49.892;10.896;2024-01-15T10:20:57;1.77;;;1.50;;
1935;SDS011;969;49.892;10.896;2024-01-15T10:23:23;2.10;;;1.50;;
1935;SDS011;969;49.892;10.896;2024-01-15T10:25:49;1.80;;;1.37;;
1935;SDS011;969;49.892;10.896;2024-01-15T10:28:16;1.83;;;1.63;;
1935;SDS011;969;49.892;10.896;2024-01-15T10:30:44;2.00;;;1.37;;
1935;SDS011;969;49.892;10.896;2024-01-15T10:33:09;2.90;;;1.80;;
1935;SDS011;969;49.892;10.896;2024-01-15T10:35:36;1.70;;;1.50;;
1935;SDS011;969;49.892;10.896;2024-01-15T10:38:03;1.70;;;1.50;;
1935;SDS011;969;49.892;10.896;2024-01-15T10:40:30;1.60;;;1.30;;
1935;SDS011;969;49.892;10.896;2024-01-15T10:42:56;1.60;;;1.30;;
1935;SDS011;969;49.892;10.896;2024-01-15T10:45:22;2.20;;;1.70;;
1935;SDS011;969;49.892;10.896;2024-01-15T10:47:48;2.37;;;1.77;;
1935;SDS011;969;49.892;10.896;2024-01-15T10:50:14;1.80;;;1.50;;
1935;SDS011;969;49.892;10.896;2024-01-15T10:52:40;2.10;;;1.60;;
1935;SDS011;969;49.892;10.896;2024-01-15T10:55:06;2.50;;;1.70;;
1935;SDS011;969;49.892;10.896;2024-01-15T10:57:38;1.83;;;1.43;;
1935;SDS011;969;49.892;10.896;2024-01-15T11:00:04;2.20;;;1.50;;
1935;SDS011;969;49.892;10.896;2024-01-15T11:02:31;1.60;;;1.37;;
1935;SDS011;969;49.892;10.896;2024-01-15T11:04:59;2.17;;;1.50;;
1935;SDS011;969;49.892;10.896;2024-01-15T11:07:25;3.00;;;1.87;;
1935;SDS011;969;49.892;10.896;2024-01-15T11:09:51;2.10;;;1.40;;
1935;SDS011;969;49.892;10.896;2024-01-15T11:12:17;2.40;;;1.53;;
1935;SDS011;969;49.892;10.896;2024-01-15T11:14:50;2.87;;;1.57;;
1935;SDS011;969;49.892;10.896;2024-01-15T11:17:17;2.00;;;1.80;;
1935;SDS011;969;49.892;10.896;2024-01-15T11:19:44;1.50;;;1.20;;
1935;SDS011;969;49.892;10.896;2024-01-15T11:24:55;4.00;;;1.83;;
1935;SDS011;969;49.892;10.896;2024-01-15T11:30:09;2.30;;;1.60;;
1935;SDS011;969;49.892;10.896;2024-01-15T11:32:37;3.10;;;1.80;;
1935;SDS011;969;49.892;10.896;2024-01-15T11:35:06;2.17;;;1.70;;
1935;SDS011;969;49.892;10.896;2024-01-15T11:42:46;1.80;;;1.33;;
1935;SDS011;969;49.892;10.896;2024-01-15T11:45:12;2.20;;;1.50;;
1935;SDS011;969;49.892;10.896;2024-01-15T11:50:40;2.20;;;1.83;;
1935;SDS011;969;49.892;10.896;2024-01-15T11:53:17;1.87;;;1.67;;
1935;SDS011;969;49.892;10.896;2024-01-15T11:55:48;3.23;;;1.97;;
1935;SDS011;969;49.892;10.896;2024-01-15T11:58:17;2.37;;;2.10;;
1935;SDS011;969;49.892;10.896;2024-01-15T12:00:43;2.93;;;2.50;;
1935;SDS011;969;49.892;10.896;2024-01-15T12:03:10;3.30;;;2.37;;
1935;SDS011;969;49.892;10.896;2024-01-15T12:05:39;2.77;;;2.30;;
1935;SDS011;969;49.892;10.896;2024-01-15T12:08:06;3.60;;;3.13;;
1935;SDS011;969;49.892;10.896;2024-01-15T12:10:35;3.70;;;3.20;;
1935;SDS011;969;49.892;10.896;2024-01-15T12:13:09;3.20;;;2.57;;
1935;SDS011;969;49.892;10.896;2024-01-15T12:15:37;3.97;;;3.10;;
1935;SDS011;969;49.892;10.896;2024-01-15T12:18:06;3.53;;;2.73;;
1935;SDS011;969;49.892;10.896;2024-01-15T12:20:33;3.20;;;2.90;;
1935;SDS011;969;49.892;10.896;2024-01-15T12:22:59;3.27;;;2.50;;
1935;SDS011;969;49.892;10.896;2024-01-15T12:25:25;6.70;;;3.77;;
1935;SDS011;969;49.892;10.896;2024-01-15T12:27:54;4.43;;;3.43;;
1935;SDS011;969;49.892;10.896;2024-01-15T12:30:20;5.07;;;3.03;;
1935;SDS011;969;49.892;10.896;2024-01-15T12:32:45;4.03;;;3.00;;
1935;SDS011;969;49.892;10.896;2024-01-15T12:35:14;3.87;;;2.70;;
1935;SDS011;969;49.892;10.896;2024-01-15T12:37:40;5.70;;;4.33;;
1935;SDS011;969;49.892;10.896;2024-01-15T12:40:09;3.60;;;3.23;;
1935;SDS011;969;49.892;10.896;2024-01-15T12:42:36;4.97;;;3.87;;
1935;SDS011;969;49.892;10.896;2024-01-15T12:45:02;4.27;;;3.70;;
1935;SDS011;969;49.892;10.896;2024-01-15T12:47:29;4.83;;;4.33;;
1935;SDS011;969;49.892;10.896;2024-01-15T12:49:56;4.20;;;3.40;;
1935;SDS011;969;49.892;10.896;2024-01-15T12:52:26;3.83;;;3.43;;
1935;SDS011;969;49.892;10.896;2024-01-15T12:54:52;5.70;;;3.40;;
1935;SDS011;969;49.892;10.896;2024-01-15T12:57:17;4.13;;;3.50;;
1935;SDS011;969;49.892;10.896;2024-01-15T12:59:43;3.70;;;3.37;;
1935;SDS011;969;49.892;10.896;2024-01-15T13:02:10;4.00;;;3.40;;
1935;SDS011;969;49.892;10.896;2024-01-15T13:04:37;5.00;;;3.63;;
1935;SDS011;969;49.892;10.896;2024-01-15T13:07:03;4.80;;;3.40;;
1935;SDS011;969;49.892;10.896;2024-01-15T13:09:29;4.27;;;3.37;;
1935;SDS011;969;49.892;10.896;2024-01-15T13:11:55;4.13;;;3.50;;
1935;SDS011;969;49.892;10.896;2024-01-15T13:14:21;6.03;;;3.77;;
1935;SDS011;969;49.892;10.896;2024-01-15T13:16:46;3.77;;;3.30;;
1935;SDS011;969;49.892;10.896;2024-01-15T13:19:12;4.10;;;3.50;;
1935;SDS011;969;49.892;10.896;2024-01-15T13:21:41;3.50;;;2.97;;
1935;SDS011;969;49.892;10.896;2024-01-15T13:24:07;4.63;;;3.50;;
1935;SDS011;969;49.892;10.896;2024-01-15T13:26:33;5.73;;;3.80;;
1935;SDS011;969;49.892;10.896;2024-01-15T13:29:04;4.90;;;3.80;;
1935;SDS011;969;49.892;10.896;2024-01-15T13:31:31;3.93;;;3.53;;
1935;SDS011;969;49.892;10.896;2024-01-15T13:33:59;3.53;;;3.23;;
1935;SDS011;969;49.892;10.896;2024-01-15T13:36:25;4.57;;;3.83;;
1935;SDS011;969;49.892;10.896;2024-01-15T13:38:51;5.27;;;4.00;;
1935;SDS011;969;49.892;10.896;2024-01-15T13:41:19;5.67;;;4.10;;
1935;SDS011;969;49.892;10.896;2024-01-15T13:43:48;4.40;;;3.50;;
1935;SDS011;969;49.892;10.896;2024-01-15T13:46:15;4.50;;;3.57;;
1935;SDS011;969;49.892;10.896;2024-01-15T13:48:42;4.03;;;3.60;;
1935;SDS011;969;49.892;10.896;2024-01-15T13:51:08;5.40;;;4.07;;
1935;SDS011;969;49.892;10.896;2024-01-15T13:53:34;4.60;;;3.30;;
1935;SDS011;969;49.892;10.896;2024-01-15T13:56:00;4.30;;;3.90;;
1935;SDS011;969;49.892;10.896;2024-01-15T13:58:25;5.33;;;4.40;;
1935;SDS011;969;49.892;10.896;2024-01-15T14:00:51;4.03;;;3.30;;
1935;SDS011;969;49.892;10.896;2024-01-15T14:03:17;4.77;;;3.90;;
1935;SDS011;969;49.892;10.896;2024-01-15T14:05:44;4.50;;;4.10;;
1935;SDS011;969;49.892;10.896;2024-01-15T14:08:09;5.13;;;3.83;;
1935;SDS011;969;49.892;10.896;2024-01-15T14:10:35;5.47;;;4.90;;
1935;SDS011;969;49.892;10.896;2024-01-15T14:13:02;5.37;;;4.50;;
1935;SDS011;969;49.892;10.896;2024-01-15T14:15:28;4.33;;;3.73;;
1935;SDS011;969;49.892;10.896;2024-01-15T14:17:54;4.80;;;4.23;;
1935;SDS011;969;49.892;10.896;2024-01-15T14:20:19;6.80;;;3.83;;
1935;SDS011;969;49.892;10.896;2024-01-15T14:22:45;6.00;;;4.33;;
1935;SDS011;969;49.892;10.896;2024-01-15T14:25:10;6.80;;;4.30;;
1935;SDS011;969;49.892;10.896;2024-01-15T14:27:36;4.70;;;4.10;;
1935;SDS011;969;49.892;10.896;2024-01-15T14:30:02;4.03;;;3.60;;
1935;SDS011;969;49.892;10.896;2024-01-15T14:32:28;5.17;;;3.90;;
1935;SDS011;969;49.892;10.896;2024-01-15T14:34:54;6.33;;;4.90;;
1935;SDS011;969;49.892;10.896;2024-01-15T14:37:21;4.83;;;4.23;;
1935;SDS011;969;49.892;10.896;2024-01-15T14:39:47;6.03;;;4.50;;
1935;SDS011;969;49.892;10.896;2024-01-15T14:42:13;7.10;;;4.43;;
1935;SDS011;969;49.892;10.896;2024-01-15T14:44:38;5.83;;;4.60;;
1935;SDS011;969;49.892;10.896;2024-01-15T14:47:05;4.70;;;4.20;;
1935;SDS011;969;49.892;10.896;2024-01-15T14:49:31;5.87;;;4.30;;
1935;SDS011;969;49.892;10.896;2024-01-15T14:51:57;4.90;;;3.40;;
1935;SDS011;969;49.892;10.896;2024-01-15T14:54:23;6.80;;;4.10;;
1935;SDS011;969;49.892;10.896;2024-01-15T14:56:48;4.97;;;4.47;;
1935;SDS011;969;49.892;10.896;2024-01-15T14:59:14;5.30;;;4.70;;
1935;SDS011;969;49.892;10.896;2024-01-15T15:01:39;5.93;;;4.40;;
1935;SDS011;969;49.892;10.896;2024-01-15T15:04:06;5.70;;;5.03;;
1935;SDS011;969;49.892;10.896;2024-01-15T15:06:33;4.47;;;3.70;;
1935;SDS011;969;49.892;10.896;2024-01-15T15:08:58;5.70;;;4.47;;
1935;SDS011;969;49.892;10.896;2024-01-15T15:11:24;6.03;;;3.90;;
1935;SDS011;969;49.892;10.896;2024-01-15T15:13:51;4.00;;;3.60;;
1935;SDS011;969;49.892;10.896;2024-01-15T15:16:17;5.77;;;4.13;;
1935;SDS011;969;49.892;10.896;2024-01-15T15:18:42;4.73;;;4.23;;
1935;SDS011;969;49.892;10.896;2024-01-15T15:21:08;6.20;;;4.03;;
1935;SDS011;969;49.892;10.896;2024-01-15T15:23:34;6.87;;;4.43;;
1935;SDS011;969;49.892;10.896;2024-01-15T15:26:00;5.50;;;3.80;;